Time;durP1;ratioP1;P1;durP2;ratioP2;P2;SDS_P1;SDS_P2;PMS_P1;PMS_P2;Temp;Humidity;BMP_temperature;BMP_pressure;BME280_temperature;BME280_humidity;BME280_pressure;Samples;Min_cycle;Max_cycle;Signal;HPM_P1;HPM_P2
2022/05/06 00:01:10;;;;;;;19.83;17.70;;;12.40;99.90;;;;;;4903610;29;20465;-82
2022/05/06 00:03:38;;;;;;;21.03;17.27;;;12.20;99.90;;;;;;4904012;29;20466;-81
2022/05/06 00:06:06;;;;;;;19.53;16.80;;;12.40;99.90;;;;;;4903495;29;20462;-82
2022/05/06 00:08:33;;;;;;;21.77;16.97;;;12.50;99.90;;;;;;4905083;29;20478;-82
2022/05/06 00:11:00;;;;;;;19.73;16.03;;;12.60;99.90;;;;;;4903163;29;20466;-81
2022/05/06 00:13:27;;;;;;;22.30;17.10;;;12.50;99.90;;;;;;4903664;29;20501;-82
2022/05/06 00:15:53;;;;;;;22.07;16.73;;;12.50;99.90;;;;;;4903924;29;20459;-81
2022/05/06 00:18:20;;;;;;;17.80;14.67;;;12.40;99.90;;;;;;4903276;29;20474;-82
2022/05/06 00:20:48;;;;;;;23.27;18.97;;;12.30;99.90;;;;;;4902956;29;20969;-82
2022/05/06 00:23:16;;;;;;;22.20;15.87;;;12.40;99.90;;;;;;4917626;29;20446;-77
2022/05/06 00:25:42;;;;;;;21.30;18.57;;;12.50;99.90;;;;;;4922221;29;20469;-77
2022/05/06 00:28:09;;;;;;;18.00;16.10;;;12.50;99.90;;;;;;4905992;29;20458;-82
2022/05/06 00:30:36;;;;;;;19.67;17.97;;;12.40;99.90;;;;;;4904181;29;21030;-80
2022/05/06 00:33:02;;;;;;;19.37;16.40;;;12.50;99.90;;;;;;4904618;29;20493;-82
2022/05/06 00:35:29;;;;;;;18.00;16.20;;;12.40;99.90;;;;;;4904098;29;20462;-82
2022/05/06 00:37:56;;;;;;;22.07;15.17;;;12.50;99.90;;;;;;4903375;29;20466;-80
2022/05/06 00:40:24;;;;;;;23.50;15.80;;;12.40;99.90;;;;;;4902738;29;20462;-82
2022/05/06 00:42:51;;;;;;;18.80;16.03;;;12.40;99.90;;;;;;4903240;29;20472;-82
2022/05/06 00:45:18;;;;;;;23.43;16.20;;;12.40;99.90;;;;;;4904110;29;20469;-82
2022/05/06 00:47:46;;;;;;;19.80;17.50;;;12.40;99.90;;;;;;4903870;29;20472;-82
2022/05/06 00:50:13;;;;;;;17.70;15.53;;;12.50;99.90;;;;;;4903283;29;20489;-82
2022/05/06 00:52:39;;;;;;;16.67;14.80;;;12.60;99.90;;;;;;4903718;29;20956;-82
2022/05/06 00:55:08;;;;;;;19.30;16.17;;;12.60;99.90;;;;;;4903472;29;20468;-82
2022/05/06 00:57:36;;;;;;;22.60;17.07;;;12.60;99.90;;;;;;4903701;29;20458;-80
2022/05/06 01:00:20;;;;;;;17.47;15.73;;;12.60;99.90;;;;;;4903257;29;20501;-82
2022/05/06 01:02:47;;;;;;;18.80;16.90;;;12.50;99.90;;;;;;4903716;29;20484;-80
2022/05/06 01:05:14;;;;;;;21.33;16.77;;;12.60;99.90;;;;;;4903252;29;20986;-82
2022/05/06 01:07:43;;;;;;;19.20;17.20;;;12.70;99.90;;;;;;4903387;29;20463;-80
2022/05/06 01:10:10;;;;;;;20.00;15.77;;;12.70;99.90;;;;;;4902709;29;20529;-82
2022/05/06 01:12:38;;;;;;;18.03;16.13;;;12.80;99.90;;;;;;4903134;29;20499;-81
2022/05/06 01:15:18;;;;;;;20.10;16.03;;;12.80;99.90;;;;;;4902963;29;20459;-80
2022/05/06 01:17:45;;;;;;;18.33;16.43;;;12.60;99.90;;;;;;4884381;29;20496;-81
2022/05/06 01:20:15;;;;;;;18.63;16.10;;;12.70;99.90;;;;;;4884871;29;20488;-81
2022/05/06 01:22:47;;;;;;;20.10;16.43;;;12.60;99.90;;;;;;4905849;29;20465;-82
2022/05/06 01:25:14;;;;;;;22.00;19.70;;;12.50;99.90;;;;;;4906792;29;20813;-82
2022/05/06 01:27:47;;;;;;;19.13;17.20;;;12.40;99.90;;;;;;4907234;29;20466;-80
2022/05/06 01:30:24;;;;;;;22.47;20.23;;;12.40;99.90;;;;;;4906097;29;20478;-82
2022/05/06 01:32:51;;;;;;;21.17;16.83;;;12.30;99.90;;;;;;4907264;29;20546;-82
2022/05/06 01:35:20;;;;;;;21.50;18.30;;;12.10;99.90;;;;;;4906231;29;20822;-82
2022/05/06 01:37:51;;;;;;;21.60;18.80;;;12.10;99.90;;;;;;4906442;29;20469;-82
2022/05/06 01:40:21;;;;;;;21.67;18.37;;;12.20;99.90;;;;;;4906172;29;20470;-82
2022/05/06 01:42:49;;;;;;;20.00;17.70;;;12.20;99.90;;;;;;4906268;29;20455;-80
2022/05/06 01:45:19;;;;;;;19.67;17.30;;;12.10;99.90;;;;;;4906782;29;20975;-81
2022/05/06 01:47:46;;;;;;;19.37;17.40;;;12.20;99.90;;;;;;4906408;29;20462;-80
2022/05/06 01:50:14;;;;;;;21.43;17.20;;;12.30;99.90;;;;;;4933822;23;20489;-81
2022/05/06 01:52:42;;;;;;;21.00;17.20;;;12.40;99.90;;;;;;4924749;29;21017;-81
2022/05/06 01:55:12;;;;;;;22.57;17.53;;;12.40;99.90;;;;;;4925759;29;20468;-81
2022/05/06 01:57:39;;;;;;;19.30;16.20;;;12.40;99.90;;;;;;4912149;29;20518;-80
2022/05/06 02:00:08;;;;;;;19.07;17.07;;;12.40;99.90;;;;;;4907410;29;20494;-80
2022/05/06 02:02:35;;;;;;;22.60;19.73;;;12.30;99.90;;;;;;4906459;29;20457;-81
2022/05/06 02:05:19;;;;;;;20.83;18.70;;;12.40;99.90;;;;;;4906243;29;20464;-81
2022/05/06 02:07:48;;;;;;;21.57;16.90;;;12.40;99.90;;;;;;4920105;29;20455;-80
2022/05/06 02:10:16;;;;;;;21.50;19.13;;;12.30;99.90;;;;;;4925311;29;20481;-81
2022/05/06 02:12:43;;;;;;;20.90;18.80;;;12.30;99.90;;;;;;4912875;29;20491;-81
2022/05/06 02:15:12;;;;;;;18.43;16.50;;;12.30;99.90;;;;;;4907094;29;20570;-79
2022/05/06 02:17:39;;;;;;;18.83;16.80;;;12.40;99.90;;;;;;4917304;29;20462;-79
2022/05/06 02:20:08;;;;;;;22.47;17.60;;;12.20;99.90;;;;;;4916053;29;20554;-80
2022/05/06 02:22:36;;;;;;;23.17;18.10;;;12.30;99.90;;;;;;4906593;29;20897;-81
2022/05/06 02:25:04;;;;;;;18.80;16.27;;;12.30;99.90;;;;;;4914561;29;20540;-81
2022/05/06 02:27:32;;;;;;;26.80;17.83;;;12.20;99.90;;;;;;4919677;29;20471;-79
2022/05/06 02:35:28;;;;;;;21.70;17.13;;;12.20;99.90;;;;;;4899542;29;20445;-79
2022/05/06 02:37:54;;;;;;;20.30;16.63;;;12.30;99.90;;;;;;4906892;29;20461;-78
2022/05/06 02:40:21;;;;;;;19.83;17.57;;;12.30;99.90;;;;;;4918092;29;20488;-80
2022/05/06 02:42:49;;;;;;;21.83;18.87;;;12.20;99.90;;;;;;4917710;29;20449;-78
2022/05/06 02:45:16;;;;;;;20.43;17.20;;;12.20;99.90;;;;;;4918524;29;20465;-78
2022/05/06 02:47:43;;;;;;;20.67;17.87;;;12.20;99.90;;;;;;4918076;29;20458;-78
2022/05/06 02:50:10;;;;;;;20.37;16.87;;;12.20;99.90;;;;;;4917703;29;20860;-78
2022/05/06 02:52:37;;;;;;;19.33;17.17;;;12.20;99.90;;;;;;4917974;29;20994;-78
2022/05/06 02:55:04;;;;;;;23.87;17.23;;;12.10;99.90;;;;;;4917997;29;20465;-79
2022/05/06 02:57:31;;;;;;;21.87;15.90;;;12.10;99.90;;;;;;4918012;29;20913;-78
2022/05/06 02:59:59;;;;;;;18.23;16.43;;;12.10;99.90;;;;;;4917905;29;20489;-79
2022/05/06 03:02:26;;;;;;;22.47;16.90;;;12.10;99.90;;;;;;4915086;29;20825;-78
2022/05/06 03:04:52;;;;;;;19.63;16.90;;;12.20;99.90;;;;;;4899047;29;20463;-78
2022/05/06 03:07:19;;;;;;;17.43;15.57;;;12.10;99.90;;;;;;4898971;29;20462;-78
2022/05/06 03:09:46;;;;;;;22.37;17.10;;;12.20;99.90;;;;;;4899186;29;20478;-78
2022/05/06 03:12:13;;;;;;;18.47;16.53;;;12.20;99.90;;;;;;4898511;29;20845;-78
2022/05/06 03:14:39;;;;;;;19.17;16.80;;;12.10;99.90;;;;;;4898878;29;20469;-78
2022/05/06 03:17:07;;;;;;;19.43;17.60;;;12.00;99.90;;;;;;4899047;29;20861;-80
2022/05/06 03:19:34;;;;;;;19.60;16.60;;;12.00;99.90;;;;;;4903558;29;20494;-80
2022/05/06 03:22:01;;;;;;;21.10;18.80;;;11.90;99.90;;;;;;4918222;29;20462;-81
2022/05/06 03:24:29;;;;;;;20.70;16.10;;;11.90;99.90;;;;;;4922132;29;20465;-80
2022/05/06 03:26:55;;;;;;;18.87;16.77;;;11.90;99.90;;;;;;4908477;29;20465;-80
2022/05/06 03:29:22;;;;;;;22.83;16.80;;;11.90;99.90;;;;;;4903947;29;20477;-79
2022/05/06 03:31:49;;;;;;;17.20;14.90;;;11.90;99.90;;;;;;4916044;29;20472;-80
2022/05/06 03:34:17;;;;;;;21.90;17.47;;;12.00;99.90;;;;;;4922413;29;20494;-81
2022/05/06 03:36:44;;;;;;;20.00;18.03;;;12.00;99.90;;;;;;4910290;29;20458;-80
2022/05/06 03:39:11;;;;;;;22.30;16.73;;;12.00;99.90;;;;;;4903061;29;20482;-80
2022/05/06 03:41:38;;;;;;;22.57;17.87;;;12.00;99.90;;;;;;4913111;29;21165;-81
2022/05/06 03:44:07;;;;;;;20.40;16.67;;;12.10;99.90;;;;;;4913476;29;20478;-81
2022/05/06 03:46:34;;;;;;;19.87;15.37;;;12.00;99.90;;;;;;4903145;29;20810;-80
2022/05/06 03:49:01;;;;;;;20.63;16.47;;;11.90;99.90;;;;;;4912058;29;20489;-80
2022/05/06 03:51:29;;;;;;;24.30;17.47;;;11.90;99.90;;;;;;4923772;29;20974;-81
2022/05/06 03:53:57;;;;;;;18.33;15.50;;;11.90;99.90;;;;;;4913610;29;20569;-79
2022/05/06 03:56:25;;;;;;;18.83;16.80;;;11.80;99.90;;;;;;4913647;29;20457;-79
2022/05/06 03:58:52;;;;;;;18.23;16.37;;;11.90;99.90;;;;;;4916795;29;20483;-79
2022/05/06 04:01:20;;;;;;;16.53;14.97;;;11.80;99.90;;;;;;4916544;29;20465;-79
2022/05/06 04:03:47;;;;;;;18.13;16.03;;;11.90;99.90;;;;;;4916178;29;20543;-79
2022/05/06 04:06:14;;;;;;;16.50;14.80;;;12.00;99.90;;;;;;4916933;29;20876;-79
2022/05/06 04:08:42;;;;;;;16.03;14.00;;;12.00;99.90;;;;;;4908921;29;20490;-79
2022/05/06 04:11:10;;;;;;;19.37;17.67;;;12.00;99.90;;;;;;4898074;29;20983;-78
2022/05/06 04:13:36;;;;;;;16.77;14.47;;;12.00;99.90;;;;;;4917162;29;20496;-79
2022/05/06 04:16:03;;;;;;;17.63;15.07;;;12.10;99.90;;;;;;4916978;29;20991;-78
2022/05/06 04:18:30;;;;;;;17.63;14.10;;;12.10;99.90;;;;;;4898528;29;20793;-78
2022/05/06 04:23:43;;;;;;;19.77;17.80;;;11.90;99.90;;;;;;4917413;29;20463;-80
2022/05/06 04:26:11;;;;;;;19.30;16.30;;;12.00;99.90;;;;;;4916523;29;20459;-79
2022/05/06 04:28:39;;;;;;;20.30;15.73;;;12.00;99.90;;;;;;4930882;29;20454;-80
2022/05/06 04:31:07;;;;;;;16.40;14.60;;;11.90;99.90;;;;;;4930640;29;20457;-79
2022/05/06 04:33:35;;;;;;;20.37;16.20;;;11.90;99.90;;;;;;4913848;29;20574;-80
2022/05/06 04:36:04;;;;;;;19.73;17.93;;;12.00;99.90;;;;;;4915644;29;20450;-78
2022/05/06 04:38:31;;;;;;;16.33;14.60;;;12.00;99.90;;;;;;4927656;29;20537;-78
2022/05/06 04:41:00;;;;;;;16.27;14.00;;;12.00;99.90;;;;;;4910745;29;20466;-81
2022/05/06 04:43:28;;;;;;;18.03;15.70;;;12.00;99.90;;;;;;4903304;29;20942;-81
2022/05/06 04:45:55;;;;;;;18.73;16.00;;;12.00;99.90;;;;;;4917068;29;20465;-81
2022/05/06 04:48:24;;;;;;;18.07;16.23;;;11.90;99.90;;;;;;4922778;29;20462;-80
2022/05/06 04:50:51;;;;;;;18.10;16.20;;;12.00;99.90;;;;;;4909917;29;20503;-81
2022/05/06 04:53:18;;;;;;;18.67;15.70;;;12.00;99.90;;;;;;4907798;29;20504;-81
2022/05/06 04:55:48;;;;;;;18.63;16.13;;;11.90;99.90;;;;;;4909665;29;20470;-81
2022/05/06 04:58:18;;;;;;;17.17;15.37;;;11.90;99.90;;;;;;4906770;29;20512;-79
2022/05/06 05:00:45;;;;;;;18.10;16.20;;;12.00;99.90;;;;;;4916083;29;20489;-79
2022/05/06 05:03:11;;;;;;;17.73;15.90;;;12.00;99.90;;;;;;4912434;29;20463;-79
2022/05/06 05:05:38;;;;;;;18.43;16.67;;;12.10;99.90;;;;;;4896978;29;20465;-79
2022/05/06 05:08:08;;;;;;;18.40;16.60;;;12.10;99.90;;;;;;4897924;29;20463;-79
2022/05/06 05:10:35;;;;;;;16.90;15.03;;;12.00;99.90;;;;;;4896498;29;20485;-79
2022/05/06 05:13:02;;;;;;;18.37;16.03;;;12.10;99.90;;;;;;4900679;29;20457;-80
2022/05/06 05:15:30;;;;;;;18.77;17.00;;;12.10;99.90;;;;;;4916465;29;20458;-79
2022/05/06 05:17:57;;;;;;;17.77;15.63;;;12.10;99.90;;;;;;4912444;29;20469;-79
2022/05/06 05:20:24;;;;;;;20.83;17.47;;;12.10;99.90;;;;;;4896545;29;21014;-79
2022/05/06 05:22:51;;;;;;;18.50;16.57;;;12.10;99.90;;;;;;4902474;29;20973;-79
2022/05/06 05:25:18;;;;;;;18.33;16.07;;;12.10;99.90;;;;;;4920678;29;20477;-81
2022/05/06 05:27:47;;;;;;;18.60;15.80;;;12.20;99.90;;;;;;4919296;29;20469;-80
2022/05/06 05:30:14;;;;;;;17.30;15.60;;;12.10;99.90;;;;;;4901511;29;20517;-80
2022/05/06 05:32:42;;;;;;;15.73;14.17;;;12.00;99.90;;;;;;4904264;29;20493;-81
2022/05/06 05:35:09;;;;;;;15.87;14.27;;;12.00;99.90;;;;;;4901020;29;21022;-78
2022/05/06 05:37:36;;;;;;;17.60;15.80;;;12.00;99.90;;;;;;4896757;29;20458;-78
2022/05/06 05:40:07;;;;;;;18.90;17.00;;;12.00;99.90;;;;;;4896817;29;20487;-78
2022/05/06 05:42:37;;;;;;;16.57;14.17;;;12.10;99.90;;;;;;4900121;29;20448;-79
2022/05/06 05:50:37;;;;;;;15.23;13.80;;;12.10;99.90;;;;;;4902558;29;20519;-78
2022/05/06 05:53:07;;;;;;;17.10;15.10;;;12.10;99.90;;;;;;4897133;29;20463;-79
2022/05/06 05:55:33;;;;;;;15.87;13.80;;;12.10;99.90;;;;;;4901249;29;21040;-79
2022/05/06 05:58:00;;;;;;;16.37;14.67;;;12.00;99.90;;;;;;4897140;29;20462;-80
2022/05/06 06:00:27;;;;;;;15.87;14.27;;;12.10;99.90;;;;;;4912378;29;20848;-80
2022/05/06 06:02:56;;;;;;;15.70;14.10;;;12.10;99.90;;;;;;4916398;29;20465;-79
2022/05/06 06:05:23;;;;;;;15.33;13.60;;;12.00;99.90;;;;;;4904653;29;20454;-81
2022/05/06 06:07:50;;;;;;;16.60;14.80;;;12.00;99.90;;;;;;4903519;29;20465;-81
2022/05/06 06:10:19;;;;;;;16.53;14.77;;;11.90;99.90;;;;;;4916979;29;20474;-79
2022/05/06 06:12:50;;;;;;;16.80;14.27;;;11.90;99.90;;;;;;4903042;29;20469;-79
2022/05/06 06:15:17;;;;;;;16.83;15.03;;;11.80;99.90;;;;;;4914160;29;20500;-80
2022/05/06 06:17:44;;;;;;;20.20;14.63;;;11.80;99.90;;;;;;4914801;29;20466;-80
2022/05/06 06:20:16;;;;;;;15.63;14.03;;;11.80;99.90;;;;;;4908861;29;20469;-81
2022/05/06 06:22:43;;;;;;;17.30;15.27;;;11.90;99.90;;;;;;4914318;29;20562;-80
2022/05/06 06:25:10;;;;;;;16.73;15.13;;;12.10;99.90;;;;;;4901834;29;20465;-79
2022/05/06 06:27:37;;;;;;;16.50;15.00;;;12.00;99.90;;;;;;4916726;29;20465;-79
2022/05/06 06:30:04;;;;;;;18.10;16.07;;;11.90;99.90;;;;;;4906465;29;20477;-79
2022/05/06 06:32:31;;;;;;;17.03;15.30;;;11.90;99.90;;;;;;4899740;29;20815;-79
2022/05/06 06:34:58;;;;;;;16.37;14.60;;;12.00;99.90;;;;;;4899813;29;20497;-78
2022/05/06 06:37:27;;;;;;;15.90;14.40;;;12.00;99.90;;;;;;4915902;29;20468;-79
2022/05/06 06:39:54;;;;;;;15.50;13.83;;;12.00;99.90;;;;;;4916839;29;20486;-79
2022/05/06 06:42:20;;;;;;;15.00;13.50;;;12.10;99.90;;;;;;4917979;29;20466;-79
2022/05/06 06:44:48;;;;;;;16.23;14.10;;;12.10;99.90;;;;;;4918374;29;20460;-78
2022/05/06 06:47:15;;;;;;;20.33;14.83;;;12.10;99.90;;;;;;4900979;29;20505;-78
2022/05/06 06:49:42;;;;;;;18.20;15.60;;;12.00;99.90;;;;;;4899322;29;20486;-78
2022/05/06 06:52:08;;;;;;;16.67;14.97;;;12.00;99.90;;;;;;4907606;29;20458;-79
2022/05/06 06:54:36;;;;;;;18.40;15.93;;;11.90;99.90;;;;;;4918029;29;20500;-79
2022/05/06 06:57:03;;;;;;;16.10;14.50;;;11.90;99.90;;;;;;4918308;29;20465;-79
2022/05/06 06:59:30;;;;;;;15.53;14.13;;;11.90;99.90;;;;;;4918239;29;20481;-79
2022/05/06 07:01:57;;;;;;;16.13;14.27;;;11.70;99.90;;;;;;4917643;29;20885;-79
2022/05/06 07:04:26;;;;;;;16.40;14.80;;;11.70;99.90;;;;;;4910654;29;20899;-79
2022/05/06 07:12:21;;;;;;;15.00;13.60;;;11.90;99.90;;;;;;4901393;29;20458;-79
2022/05/06 07:14:48;;;;;;;16.00;14.40;;;11.80;99.90;;;;;;4907764;29;20485;-80
2022/05/06 07:17:15;;;;;;;14.50;12.40;;;11.80;99.90;;;;;;4908985;29;20457;-80
2022/05/06 07:19:42;;;;;;;14.67;13.27;;;12.00;99.90;;;;;;4909335;29;21197;-80
2022/05/06 07:22:09;;;;;;;14.93;13.43;;;12.00;99.90;;;;;;4912531;29;20511;-80
2022/05/06 07:24:38;;;;;;;15.10;13.63;;;12.00;99.90;;;;;;4912181;29;20545;-81
2022/05/06 07:27:14;;;;;;;14.30;12.67;;;12.10;99.90;;;;;;4910544;29;20458;-80
2022/05/06 07:29:40;;;;;;;14.13;12.63;;;12.20;99.90;;;;;;4912679;29;20479;-81
2022/05/06 07:32:08;;;;;;;15.90;14.20;;;12.10;99.90;;;;;;4906020;29;20466;-80
2022/05/06 07:34:35;;;;;;;12.57;11.47;;;12.20;99.90;;;;;;4911679;29;20500;-80
2022/05/06 07:37:02;;;;;;;14.83;12.17;;;12.30;99.90;;;;;;4918125;29;20462;-80
2022/05/06 07:39:28;;;;;;;14.70;13.40;;;12.10;99.90;;;;;;4914554;29;20477;-80
2022/05/06 07:41:57;;;;;;;16.70;13.67;;;12.20;99.90;;;;;;4924409;29;20468;-81
2022/05/06 07:44:24;;;;;;;15.57;11.67;;;12.10;99.90;;;;;;4905842;29;20462;-81
2022/05/06 07:46:50;;;;;;;13.60;12.23;;;12.00;99.90;;;;;;4906408;29;20464;-81
2022/05/06 07:49:17;;;;;;;14.73;13.17;;;12.10;99.90;;;;;;4940765;23;20520;-80
2022/05/06 07:51:44;;;;;;;14.37;12.97;;;12.10;99.90;;;;;;4917815;29;20468;-79
2022/05/06 07:54:10;;;;;;;17.17;11.93;;;12.10;99.90;;;;;;4903675;29;20878;-78
2022/05/06 07:56:37;;;;;;;12.70;11.60;;;12.20;99.90;;;;;;4920573;29;20474;-79
2022/05/06 07:59:05;;;;;;;16.90;13.33;;;12.20;99.90;;;;;;4921535;29;20485;-79
2022/05/06 08:04:36;;;;;;;13.00;11.80;;;12.20;99.90;;;;;;4927428;29;20444;-82
2022/05/06 08:07:05;;;;;;;12.87;11.87;;;12.20;99.90;;;;;;4926199;29;20462;-81
2022/05/06 08:09:32;;;;;;;12.53;11.43;;;12.20;99.90;;;;;;4925579;29;20477;-80
2022/05/06 08:11:58;;;;;;;13.00;11.60;;;12.30;99.90;;;;;;4926019;29;20458;-82
2022/05/06 08:14:27;;;;;;;12.50;11.17;;;12.40;99.90;;;;;;4929997;29;20492;-79
2022/05/06 08:16:53;;;;;;;13.57;12.17;;;12.60;99.90;;;;;;4921008;29;20532;-78
2022/05/06 08:19:20;;;;;;;13.07;11.40;;;12.40;99.90;;;;;;4916416;29;20826;-78
2022/05/06 08:21:48;;;;;;;13.77;11.87;;;12.40;99.90;;;;;;4917935;29;20462;-77
2022/05/06 08:24:14;;;;;;;12.67;11.40;;;12.40;99.90;;;;;;4916222;29;20521;-78
2022/05/06 08:26:59;;;;;;;12.27;11.13;;;12.40;99.90;;;;;;4904025;29;20463;-82
2022/05/06 08:29:28;;;;;;;11.20;10.23;;;12.40;99.90;;;;;;4911194;29;20531;-78
2022/05/06 08:31:55;;;;;;;14.13;10.60;;;12.50;99.90;;;;;;4922013;29;20470;-79
2022/05/06 08:34:22;;;;;;;10.77;9.87;;;12.60;99.90;;;;;;4910753;29;20947;-79
2022/05/06 08:36:50;;;;;;;10.40;9.33;;;12.70;99.90;;;;;;4920274;29;20457;-78
2022/05/06 08:39:17;;;;;;;10.90;9.80;;;12.90;99.90;;;;;;4922475;29;20486;-81
2022/05/06 08:41:47;;;;;;;10.87;9.83;;;13.00;99.90;;;;;;4918775;29;20468;-80
2022/05/06 08:52:34;;;;;;;10.23;9.30;;;13.30;99.90;;;;;;4921553;29;20511;-81
2022/05/06 08:55:01;;;;;;;11.97;10.70;;;13.60;99.90;;;;;;4922026;29;20896;-81
2022/05/06 08:57:28;;;;;;;13.07;9.87;;;13.70;99.90;;;;;;4922626;29;20491;-83
2022/05/06 08:59:55;;;;;;;10.37;9.27;;;13.70;99.90;;;;;;4920514;29;20839;-84
2022/05/06 09:02:23;;;;;;;12.10;9.93;;;13.80;99.90;;;;;;4921851;29;20463;-82
2022/05/06 09:04:50;;;;;;;9.70;8.77;;;13.90;99.90;;;;;;4922144;29;20466;-82
2022/05/06 09:07:20;;;;;;;10.07;8.93;;;13.70;99.90;;;;;;4922153;29;20465;-83
2022/05/06 09:10:11;;;;;;;10.20;9.20;;;13.80;99.90;;;;;;4921921;29;20482;-82
2022/05/06 09:12:50;;;;;;;9.80;8.90;;;13.80;99.90;;;;;;4913972;29;20457;-84
2022/05/06 09:18:05;;;;;;;9.53;8.73;;;13.70;99.90;;;;;;4904980;29;20471;-84
2022/05/06 09:20:32;;;;;;;10.37;9.00;;;13.80;99.90;;;;;;4921052;29;20490;-83
2022/05/06 09:23:00;;;;;;;11.13;8.40;;;13.80;99.90;;;;;;4921011;29;20482;-83
2022/05/06 09:25:42;;;;;;;11.67;8.93;;;13.90;99.90;;;;;;4923181;29;20485;-80
2022/05/06 09:28:23;;;;;;;8.97;8.20;;;13.90;99.90;;;;;;4922799;29;20894;-81
2022/05/06 09:31:04;;;;;;;9.63;8.80;;;14.00;99.90;;;;;;4921541;29;20484;-81
2022/05/06 09:33:34;;;;;;;9.87;8.90;;;13.90;99.90;;;;;;4908778;29;20466;-81
2022/05/06 09:36:22;;;;;;;9.03;8.13;;;14.00;99.90;;;;;;4923579;29;20487;-81
2022/05/06 09:39:02;;;;;;;7.93;7.23;;;14.10;99.90;;;;;;4923734;29;20451;-81
2022/05/06 09:41:28;;;;;;;9.60;8.70;;;14.30;99.90;;;;;;4923119;29;20459;-81
2022/05/06 09:43:59;;;;;;;9.20;7.80;;;14.30;99.90;;;;;;4924756;29;20827;-80
2022/05/06 09:46:26;;;;;;;8.90;7.60;;;14.40;99.90;;;;;;4925657;29;20952;-83
2022/05/06 09:48:58;;;;;;;10.37;9.10;;;14.60;99.90;;;;;;4926879;29;20465;-80
2022/05/06 09:51:26;;;;;;;8.37;7.63;;;14.60;99.90;;;;;;4906802;29;20456;-81
2022/05/06 09:53:52;;;;;;;9.23;8.43;;;14.60;99.90;;;;;;4923989;29;20486;-80
2022/05/06 09:56:21;;;;;;;9.03;8.23;;;14.70;99.90;;;;;;4907826;29;20486;-80
2022/05/06 09:58:48;;;;;;;9.87;7.60;;;14.70;99.90;;;;;;4923536;29;20518;-79
2022/05/06 10:01:15;;;;;;;9.23;8.33;;;14.80;99.90;;;;;;4926404;29;20463;-81
2022/05/06 10:03:42;;;;;;;8.67;7.83;;;15.00;99.90;;;;;;4925454;29;20469;-81
2022/05/06 10:06:11;;;;;;;8.70;8.00;;;15.10;99.90;;;;;;4926257;29;20457;-79
2022/05/06 10:08:42;;;;;;;9.00;8.20;;;15.20;99.90;;;;;;4926167;29;20454;-81
2022/05/06 10:11:12;;;;;;;8.67;7.80;;;15.30;99.90;;;;;;4925674;29;20481;-81
2022/05/06 10:13:44;;;;;;;9.73;7.80;;;15.40;99.90;;;;;;4925150;29;20502;-79
2022/05/06 10:16:11;;;;;;;9.53;8.73;;;15.60;99.90;;;;;;4941209;29;20482;-81
2022/05/06 10:18:39;;;;;;;8.10;7.33;;;15.60;99.90;;;;;;4942547;29;20453;-82
2022/05/06 10:21:06;;;;;;;8.80;8.00;;;15.90;99.90;;;;;;4926350;29;20478;-82
2022/05/06 10:23:48;;;;;;;8.00;7.40;;;16.10;99.90;;;;;;4926480;29;20463;-82
2022/05/06 10:26:45;;;;;;;9.20;8.33;;;16.50;99.90;;;;;;4925959;29;20461;-82
2022/05/06 10:35:15;;;;;;;8.60;7.90;;;17.50;99.60;;;;;;4922162;29;20485;-85
2022/05/06 10:37:44;;;;;;;8.80;7.63;;;17.70;98.00;;;;;;4920288;29;20465;-84
2022/05/06 10:40:34;;;;;;;8.77;7.87;;;17.60;97.60;;;;;;4920415;29;20480;-84
2022/05/06 10:43:04;;;;;;;8.87;8.00;;;17.40;97.80;;;;;;4920045;29;20456;-83
2022/05/06 10:45:36;;;;;;;8.00;7.23;;;17.60;98.70;;;;;;4919608;29;20536;-84
2022/05/06 10:48:22;;;;;;;8.87;8.07;;;17.60;98.00;;;;;;4919501;29;20469;-84
2022/05/06 10:50:51;;;;;;;9.00;8.20;;;17.50;98.40;;;;;;4918236;29;20559;-85
2022/05/06 10:53:33;;;;;;;8.57;7.77;;;17.80;98.60;;;;;;4918967;29;20988;-85
2022/05/06 10:56:02;;;;;;;9.13;8.30;;;18.10;97.80;;;;;;4920404;29;20520;-85
2022/05/06 10:58:29;;;;;;;8.17;7.40;;;18.30;97.30;;;;;;4920360;29;20456;-85
2022/05/06 11:01:00;;;;;;;9.00;8.30;;;18.40;96.50;;;;;;4921069;29;20481;-83
2022/05/06 11:03:27;;;;;;;7.90;7.20;;;18.70;95.90;;;;;;4920486;29;20462;-84
2022/05/06 11:05:54;;;;;;;8.97;8.20;;;19.00;95.50;;;;;;4919386;29;20541;-85
2022/05/06 11:08:32;;;;;;;8.07;7.27;;;19.40;95.20;;;;;;4919242;29;20953;-84
2022/05/06 11:11:01;;;;;;;8.40;7.50;;;19.70;95.10;;;;;;4918518;29;20481;-85
2022/05/06 11:13:27;;;;;;;7.90;7.20;;;19.80;93.70;;;;;;4919019;29;20454;-85
2022/05/06 11:15:57;;;;;;;8.00;7.30;;;20.10;92.90;;;;;;4918911;29;20501;-84
2022/05/06 11:18:25;;;;;;;9.13;8.47;;;20.20;92.50;;;;;;4919089;29;20498;-85
2022/05/06 11:20:57;;;;;;;10.90;7.40;;;20.50;92.50;;;;;;4918273;29;20485;-84
2022/05/06 11:23:30;;;;;;;8.50;7.70;;;20.50;92.50;;;;;;4918758;29;20464;-85
2022/05/06 11:25:59;;;;;;;7.07;6.57;;;21.00;93.00;;;;;;4918604;29;20878;-85
2022/05/06 11:28:27;;;;;;;8.07;7.27;;;21.50;91.30;;;;;;4918475;29;20890;-85
2022/05/06 11:30:56;;;;;;;7.10;6.50;;;22.00;91.10;;;;;;4917805;29;20537;-83
2022/05/06 11:33:28;;;;;;;7.97;6.47;;;22.30;90.00;;;;;;4917730;29;20467;-85
2022/05/06 11:36:01;;;;;;;7.80;7.13;;;22.20;88.20;;;;;;4937953;29;20537;-80
2022/05/06 11:38:32;;;;;;;6.70;6.20;;;22.50;89.70;;;;;;4942890;29;20461;-79
2022/05/06 11:41:08;;;;;;;7.00;6.30;;;22.60;87.30;;;;;;4919573;29;20474;-85
2022/05/06 11:43:40;;;;;;;7.40;6.00;;;22.60;86.80;;;;;;4918035;29;20458;-84
2022/05/06 11:48:52;;;;;;;7.80;7.00;;;21.70;88.30;;;;;;4917545;29;20948;-84
2022/05/06 11:51:23;;;;;;;10.37;7.57;;;21.50;85.40;;;;;;4917421;29;20471;-85
2022/05/06 11:53:53;;;;;;;7.07;6.57;;;20.80;84.60;;;;;;4917988;29;20534;-85
2022/05/06 11:56:27;;;;;;;6.60;6.00;;;20.70;88.50;;;;;;4917531;29;20462;-85
2022/05/06 11:59:05;;;;;;;8.07;6.00;;;20.80;89.30;;;;;;4916119;29;20559;-84
2022/05/06 12:01:34;;;;;;;5.73;5.30;;;20.90;88.60;;;;;;4917881;29;20525;-85
2022/05/06 12:04:02;;;;;;;7.07;6.40;;;21.30;89.30;;;;;;4918112;29;20461;-85
2022/05/06 12:06:31;;;;;;;7.33;6.70;;;21.30;87.20;;;;;;4917101;29;20563;-85
2022/05/06 12:09:11;;;;;;;10.93;6.60;;;21.20;86.90;;;;;;4917670;29;20474;-85
2022/05/06 12:11:39;;;;;;;6.73;6.20;;;21.60;86.20;;;;;;4917741;29;20456;-85
2022/05/06 12:14:19;;;;;;;7.40;6.80;;;21.40;86.10;;;;;;4917809;29;20463;-85
2022/05/06 12:16:57;;;;;;;8.97;6.90;;;21.10;85.80;;;;;;4918125;29;20458;-85
2022/05/06 12:19:34;;;;;;;6.07;5.67;;;20.80;85.30;;;;;;4918279;29;20504;-85
2022/05/06 12:22:04;;;;;;;7.30;6.70;;;20.80;86.70;;;;;;4918844;29;20466;-85
2022/05/06 12:24:40;;;;;;;7.00;6.37;;;20.20;86.80;;;;;;4918637;29;20465;-85
2022/05/06 12:27:08;;;;;;;6.50;6.00;;;20.00;87.10;;;;;;4918034;29;21033;-85
2022/05/06 12:29:42;;;;;;;7.17;6.63;;;20.10;88.70;;;;;;4924414;29;20576;-85
2022/05/06 12:32:09;;;;;;;7.20;6.13;;;19.90;87.90;;;;;;4917057;29;20556;-84
2022/05/06 12:34:35;;;;;;;6.50;6.00;;;19.90;90.00;;;;;;4917780;29;20470;-85
2022/05/06 12:37:11;;;;;;;9.87;7.10;;;20.20;90.20;;;;;;4917772;29;20457;-85
2022/05/06 12:39:44;;;;;;;6.80;6.00;;;20.30;90.00;;;;;;4917167;29;20466;-85
2022/05/06 12:42:21;;;;;;;8.87;8.00;;;20.30;87.30;;;;;;4917123;29;20470;-84
2022/05/06 12:44:50;;;;;;;8.33;7.20;;;20.50;86.90;;;;;;4917229;29;20458;-85
2022/05/06 12:49:59;;;;;;;8.07;6.83;;;20.80;84.70;;;;;;4916527;29;20964;-84
2022/05/06 12:52:25;;;;;;;7.60;6.27;;;21.00;84.00;;;;;;4917145;29;20991;-85
2022/05/06 12:54:52;;;;;;;9.07;7.20;;;21.20;84.20;;;;;;4916902;29;20450;-84
2022/05/06 12:57:20;;;;;;;8.40;6.93;;;21.10;82.80;;;;;;4916971;29;20456;-85
2022/05/06 12:59:48;;;;;;;8.23;7.60;;;20.90;82.40;;;;;;4917265;29;20470;-85
2022/05/06 13:02:15;;;;;;;7.33;6.63;;;20.70;83.10;;;;;;4917215;29;20454;-85
2022/05/06 13:04:42;;;;;;;6.77;6.27;;;20.70;84.10;;;;;;4917061;29;20477;-85
2022/05/06 13:07:08;;;;;;;7.30;6.60;;;20.90;83.40;;;;;;4917588;29;20838;-85
2022/05/06 13:09:35;;;;;;;8.47;7.77;;;20.50;83.30;;;;;;4917715;29;20481;-84
2022/05/06 13:12:02;;;;;;;7.20;6.50;;;20.30;83.80;;;;;;4918029;29;20476;-85
2022/05/06 13:14:29;;;;;;;7.67;6.90;;;20.60;84.70;;;;;;4917916;29;20464;-85
2022/05/06 13:16:57;;;;;;;7.70;7.10;;;20.70;84.00;;;;;;4917657;29;20460;-85
2022/05/06 13:19:24;;;;;;;7.07;6.57;;;20.90;84.50;;;;;;4917712;29;20511;-85
2022/05/06 13:21:51;;;;;;;7.53;6.87;;;21.20;85.20;;;;;;4917655;29;20470;-83
2022/05/06 13:24:18;;;;;;;7.70;6.73;;;21.40;83.30;;;;;;4917532;29;20870;-85
2022/05/06 13:26:53;;;;;;;8.20;7.50;;;21.70;81.60;;;;;;4918772;29;20499;-85